createdAt,value
2018-11-20T00:01:42.764Z,0.38
2018-11-20T00:04:52.022Z,0.41
2018-11-20T00:08:01.305Z,0.34
2018-11-20T00:13:41.419Z,0.38
2018-11-20T00:16:47.503Z,0.39
2018-11-20T00:19:56.450Z,0.34
2018-11-20T00:26:09.419Z,0.37
2018-11-20T00:29:18.273Z,0.36
2018-11-20T00:32:07.558Z,0.39
2018-11-20T00:35:16.436Z,0.45
2018-11-20T00:46:58.992Z,0.42
2018-11-20T00:56:14.276Z,0.45
2018-11-20T01:01:52.274Z,0.44
2018-11-20T01:05:01.116Z,0.55
2018-11-20T01:08:10.272Z,0.47
2018-11-20T01:11:20.146Z,0.44
2018-11-20T01:14:10.784Z,0.47
2018-11-20T01:17:00.000Z,0.57
2018-11-20T01:26:16.253Z,0.56
2018-11-20T01:29:25.109Z,0.53
2018-11-20T01:34:58.392Z,0.50
2018-11-20T01:38:26.553Z,0.51
2018-11-20T01:41:36.500Z,0.50
2018-11-20T01:44:45.297Z,0.60
2018-11-20T01:47:54.232Z,0.65
2018-11-20T01:50:44.431Z,0.66
2018-11-20T01:56:38.474Z,0.66
2018-11-20T01:59:27.952Z,0.62
2018-11-20T02:02:36.907Z,0.57
2018-11-20T02:05:45.779Z,0.62
2018-11-20T02:08:54.657Z,0.51
2018-11-20T02:12:03.587Z,0.49
2018-11-20T02:15:12.443Z,0.46
2018-11-20T02:18:05.710Z,0.54
2018-11-20T02:21:14.687Z,0.53
2018-11-20T02:24:27.608Z,0.43
2018-11-20T02:27:10.120Z,0.50
2018-11-20T02:30:30.312Z,0.47
2018-11-20T02:36:12.772Z,0.39
2018-11-20T02:39:21.618Z,0.47
2018-11-20T02:48:00.963Z,0.40
2018-11-20T02:51:09.826Z,0.44
2018-11-20T02:54:20.662Z,0.43
2018-11-20T02:57:10.965Z,0.42
2018-11-20T03:00:17.737Z,0.44
2018-11-20T03:06:10.476Z,0.48
2018-11-20T03:09:19.314Z,0.45
2018-11-20T03:12:08.525Z,0.50
2018-11-20T03:15:17.369Z,0.47
2018-11-20T03:18:06.565Z,0.57
2018-11-20T03:21:15.413Z,0.59
2018-11-20T03:24:24.619Z,0.65
2018-11-20T03:27:33.473Z,0.65
2018-11-20T03:31:20.903Z,0.62
2018-11-20T03:34:12.715Z,0.61
2018-11-20T03:37:22.608Z,0.62
2018-11-20T03:40:11.796Z,0.65
2018-11-20T03:43:20.652Z,0.60
2018-11-20T03:46:29.489Z,0.59
2018-11-20T03:49:40.809Z,0.58
2018-11-20T03:52:49.667Z,0.54
2018-11-20T03:55:58.563Z,0.54
2018-11-20T03:59:07.447Z,0.51
2018-11-20T04:02:16.680Z,0.56
2018-11-20T04:08:07.778Z,0.55
2018-11-20T04:11:16.650Z,0.61
2018-11-20T04:14:05.831Z,0.54
2018-11-20T04:17:08.362Z,0.58
2018-11-20T04:20:09.895Z,0.64
2018-11-20T04:23:18.765Z,0.64
2018-11-20T04:29:10.500Z,0.74
2018-11-20T04:32:38.628Z,0.73
2018-11-20T04:35:29.536Z,0.77
2018-11-20T04:38:27.220Z,0.80
2018-11-20T04:44:26.376Z,0.76
2018-11-20T04:47:35.247Z,0.80
2018-11-20T04:50:15.371Z,0.74
2018-11-20T04:56:41.454Z,0.82
2018-11-20T05:02:34.408Z,0.74
2018-11-20T05:05:45.420Z,0.69
2018-11-20T05:11:58.217Z,0.65
2018-11-20T05:15:07.130Z,0.67
2018-11-20T05:18:15.998Z,0.81
2018-11-20T05:21:24.942Z,0.76
2018-11-20T05:24:21.595Z,0.68
2018-11-20T05:27:20.599Z,0.67
2018-11-20T05:30:29.422Z,0.69
2018-11-20T05:33:57.819Z,0.66
2018-11-20T05:37:06.414Z,0.63
2018-11-20T05:42:58.089Z,0.62
2018-11-20T05:45:48.320Z,0.63
2018-11-20T05:59:56.926Z,0.67
2018-11-20T06:03:05.772Z,0.67
2018-11-20T06:06:07.409Z,0.66
2018-11-20T06:12:00.256Z,0.71
2018-11-20T06:15:09.117Z,0.68
2018-11-20T06:18:18.005Z,0.66
2018-11-20T06:21:27.140Z,0.69
2018-11-20T06:24:36.017Z,0.74
2018-11-20T06:27:44.897Z,0.72
2018-11-20T06:30:53.736Z,0.69
2018-11-20T06:34:02.595Z,0.72
2018-11-20T06:36:51.800Z,0.70
2018-11-20T06:40:00.939Z,0.68
2018-11-20T06:42:51.129Z,0.69
2018-11-20T06:45:41.389Z,0.67
2018-11-20T06:48:30.538Z,0.67
2018-11-20T06:51:39.396Z,0.63
2018-11-20T06:54:48.578Z,0.69
2018-11-20T06:57:57.532Z,0.62
2018-11-20T07:00:46.789Z,0.69
2018-11-20T07:03:55.674Z,0.70
2018-11-20T07:06:52.054Z,0.68
2018-11-20T07:10:00.920Z,0.71
2018-11-20T07:13:09.792Z,0.69
2018-11-20T07:16:56.462Z,0.71
2018-11-20T07:19:50.363Z,0.71
2018-11-20T07:22:39.607Z,0.74
2018-11-20T07:25:48.431Z,0.79
2018-11-20T07:28:57.270Z,0.83
2018-11-20T07:32:06.537Z,0.82
2018-11-20T07:35:15.402Z,0.88
2018-11-20T07:38:24.473Z,0.90
2018-11-20T07:41:33.296Z,0.84
2018-11-20T07:44:42.140Z,0.88
2018-11-20T07:47:51.015Z,0.81
2018-11-20T07:51:00.232Z,0.79
2018-11-20T07:54:09.059Z,0.77
2018-11-20T07:57:17.939Z,0.80
2018-11-20T08:00:46.074Z,0.74
2018-11-20T08:03:35.237Z,0.81
2018-11-20T08:06:44.077Z,0.76
2018-11-20T08:09:52.938Z,0.78
2018-11-20T08:13:01.801Z,0.78
2018-11-20T08:16:11.045Z,0.79
2018-11-20T08:19:20.653Z,0.80
2018-11-20T08:25:11.728Z,0.78
2018-11-20T08:28:20.698Z,0.82
2018-11-20T08:31:29.587Z,0.84
2018-11-20T08:34:50.184Z,0.88
2018-11-20T08:37:41.006Z,0.86
2018-11-20T08:43:33.826Z,0.91
2018-11-20T08:46:42.679Z,1.01
2018-11-20T08:49:32.026Z,0.99
2018-11-20T08:52:40.921Z,0.97
2018-11-20T08:58:11.474Z,1.02
2018-11-20T09:01:11.616Z,0.96
2018-11-20T09:04:20.539Z,1.03
2018-11-20T09:07:29.453Z,1.01
2018-11-20T09:10:38.342Z,1.00
2018-11-20T09:13:47.176Z,1.03
2018-11-20T09:16:56.304Z,1.02
2018-11-20T09:22:48.117Z,0.99
2018-11-20T09:25:56.988Z,1.10
2018-11-20T09:28:46.176Z,0.99
2018-11-20T09:34:18.449Z,1.00
2018-11-20T09:37:27.283Z,0.98
2018-11-20T09:41:04.922Z,0.97
2018-11-20T09:44:51.576Z,1.01
2018-11-20T09:47:42.273Z,0.97
2018-11-20T09:50:51.153Z,0.99
2018-11-20T09:56:42.481Z,0.92
2018-11-20T09:59:51.373Z,0.92
2018-11-20T10:03:00.188Z,0.88
2018-11-20T10:06:09.053Z,0.91
2018-11-20T10:12:01.214Z,0.96
2018-11-20T10:15:10.110Z,0.89
2018-11-20T10:18:18.988Z,1.03
2018-11-20T10:21:27.950Z,0.94
2018-11-20T10:27:20.389Z,1.08
2018-11-20T10:30:29.594Z,1.00
2018-11-20T10:36:21.981Z,1.02
2018-11-20T10:39:31.074Z,1.01
2018-11-20T10:45:23.964Z,1.11
2018-11-20T10:48:32.728Z,1.15
2018-11-20T10:51:26.864Z,1.08
2018-11-20T10:54:35.851Z,1.25
2018-11-20T10:57:44.695Z,1.19
2018-11-20T11:00:53.575Z,1.21
2018-11-20T11:04:02.541Z,1.16
2018-11-20T11:07:30.969Z,1.20
2018-11-20T11:10:06.155Z,1.17
2018-11-20T11:13:15.156Z,1.18
2018-11-20T11:16:16.856Z,1.26
2018-11-20T11:22:07.530Z,1.23
2018-11-20T11:25:16.402Z,1.17
2018-11-20T11:28:05.559Z,1.16
2018-11-20T11:31:26.371Z,1.15
2018-11-20T11:34:29.311Z,1.16
2018-11-20T11:37:00.622Z,1.20
2018-11-20T11:40:09.476Z,1.37
2018-11-20T11:43:18.315Z,1.25
2018-11-20T11:46:19.251Z,1.34
2018-11-20T11:49:08.744Z,1.49
2018-11-20T11:52:17.592Z,1.44
2018-11-20T11:55:26.492Z,1.49
2018-11-20T11:58:35.521Z,1.46
2018-11-20T12:04:52.499Z,1.57
2018-11-20T12:08:01.381Z,1.43
2018-11-20T12:11:10.235Z,1.35
2018-11-20T12:14:19.094Z,1.31
2018-11-20T12:17:28.276Z,1.41
2018-11-20T12:20:37.171Z,1.46
2018-11-20T12:23:46.059Z,1.32
2018-11-20T12:26:55.447Z,1.27
2018-11-20T12:30:04.766Z,1.37
2018-11-20T12:33:13.629Z,1.47
2018-11-20T12:36:02.866Z,1.32
2018-11-20T12:38:52.030Z,1.37
2018-11-20T12:42:02.533Z,1.41
2018-11-20T12:47:53.983Z,1.38
2018-11-20T12:50:43.175Z,1.43
2018-11-20T12:53:52.029Z,1.50
2018-11-20T12:59:45.806Z,1.46
2018-11-20T13:02:54.950Z,1.52
2018-11-20T13:05:44.111Z,1.46
2018-11-20T13:08:52.952Z,1.50
2018-11-20T13:12:01.828Z,1.41
2018-11-20T13:15:10.687Z,1.37
2018-11-20T13:18:19.831Z,1.36
2018-11-20T13:21:28.748Z,1.32
2018-11-20T13:24:41.160Z,1.32
2018-11-20T13:27:32.154Z,1.34
2018-11-20T13:30:40.993Z,1.34
2018-11-20T13:39:18.224Z,1.32
2018-11-20T13:42:47.757Z,1.25
2018-11-20T13:45:56.710Z,1.29
2018-11-20T13:49:05.571Z,1.29
2018-11-20T13:52:14.685Z,1.18
2018-11-20T13:58:06.707Z,1.22
2018-11-20T14:01:15.551Z,1.34
2018-11-20T14:04:24.469Z,1.29
2018-11-20T14:10:07.088Z,1.13
2018-11-20T14:13:15.971Z,1.19
2018-11-20T14:16:25.143Z,1.14
2018-11-20T14:22:15.375Z,1.23
2018-11-20T14:25:45.552Z,1.29
2018-11-20T14:28:49.826Z,1.28
2018-11-20T14:31:58.654Z,1.37
2018-11-20T14:35:18.735Z,1.25
2018-11-20T14:40:51.813Z,1.30
2018-11-20T14:44:00.760Z,1.28
2018-11-20T14:49:53.760Z,1.26
2018-11-20T14:55:45.971Z,1.08
2018-11-20T14:58:54.889Z,1.04
2018-11-20T15:02:04.681Z,0.99
2018-11-20T15:05:32.419Z,1.01
2018-11-20T15:08:22.804Z,1.04
2018-11-20T15:11:31.646Z,0.96
2018-11-20T15:14:40.526Z,1.05
2018-11-20T15:20:31.553Z,1.12
2018-11-20T15:26:22.102Z,0.92
2018-11-20T15:29:30.999Z,1.05
2018-11-20T15:32:39.854Z,0.99
2018-11-20T15:35:48.725Z,0.91
2018-11-20T15:38:52.500Z,0.85
2018-11-20T15:42:06.741Z,0.76
2018-11-20T15:45:10.199Z,0.77
2018-11-20T16:04:42.801Z,0.96
2018-11-20T16:10:33.788Z,1.12
2018-11-20T16:13:42.646Z,1.02
2018-11-20T16:16:31.961Z,1.18
2018-11-20T16:22:28.914Z,1.00
2018-11-20T16:25:37.807Z,0.90
2018-11-20T16:28:46.953Z,1.01
2018-11-20T16:31:55.958Z,0.87
2018-11-20T16:35:24.028Z,0.82
2018-11-20T16:38:13.804Z,0.94
2018-11-20T16:41:23.748Z,0.85
2018-11-20T16:44:13.077Z,0.99
2018-11-20T16:47:14.092Z,0.92
2018-11-20T16:50:23.040Z,1.01
2018-11-20T16:53:12.342Z,0.83
2018-11-20T16:56:21.170Z,0.87
2018-11-20T16:59:30.092Z,0.82
2018-11-20T17:02:39.447Z,0.85
2018-11-20T17:05:48.531Z,0.81
2018-11-20T17:08:57.412Z,0.83
2018-11-20T17:14:50.908Z,1.03
2018-11-20T17:18:00.735Z,1.01
2018-11-20T17:20:51.500Z,0.92
2018-11-20T17:24:03.680Z,1.03
2018-11-20T17:29:54.698Z,0.80
2018-11-20T17:33:03.968Z,0.97
2018-11-20T17:36:13.211Z,0.78
2018-11-20T17:39:12.797Z,0.80
2018-11-20T17:42:22.059Z,0.86
2018-11-20T17:48:13.203Z,0.95
2018-11-20T17:51:14.658Z,1.04
2018-11-20T17:54:23.646Z,1.14
2018-11-20T17:57:13.890Z,1.10
2018-11-20T18:00:04.200Z,1.08
2018-11-20T18:05:56.454Z,1.22
2018-11-20T18:14:32.482Z,1.07
2018-11-20T18:17:41.468Z,1.04
2018-11-20T18:20:50.378Z,1.05
2018-11-20T18:27:02.727Z,1.09
2018-11-20T18:32:53.961Z,1.04
2018-11-20T18:36:03.222Z,1.10
2018-11-20T18:39:12.640Z,1.03
2018-11-20T18:42:28.410Z,1.22
2018-11-20T18:45:37.733Z,1.19
2018-11-20T18:48:26.916Z,1.38
2018-11-20T18:51:35.877Z,1.18
2018-11-20T18:54:44.755Z,1.09
2018-11-20T18:57:53.951Z,1.05
2018-11-20T19:01:02.842Z,1.04
2018-11-20T19:04:11.688Z,1.03
2018-11-20T19:15:28.582Z,1.18
2018-11-20T19:18:37.528Z,1.22
2018-11-20T19:21:26.839Z,1.19
2018-11-20T19:24:35.769Z,1.16
2018-11-20T19:27:44.648Z,1.19
2018-11-20T19:30:53.511Z,1.20
2018-11-20T19:34:02.470Z,1.14
2018-11-20T19:37:11.379Z,1.24
2018-11-20T19:40:21.060Z,1.20
2018-11-20T19:46:12.550Z,1.43
2018-11-20T19:52:25.735Z,1.41
2018-11-20T19:58:46.571Z,1.43
2018-11-20T20:01:55.466Z,1.32
2018-11-20T20:07:47.949Z,1.25
2018-11-20T20:10:57.749Z,1.27
2018-11-20T20:13:46.935Z,1.20
2018-11-20T20:16:56.446Z,1.30
2018-11-20T20:22:48.838Z,1.34
2018-11-20T20:28:21.190Z,1.44
2018-11-20T20:31:31.201Z,1.52
2018-11-20T20:34:35.613Z,1.42
2018-11-20T20:37:24.913Z,1.46
2018-11-20T20:40:33.764Z,1.43
2018-11-20T20:43:42.603Z,1.44
2018-11-20T20:46:51.484Z,1.45
2018-11-20T20:49:57.714Z,1.39
2018-11-20T20:58:34.952Z,1.55
2018-11-20T21:01:43.985Z,1.55
2018-11-20T21:04:40.246Z,1.50
2018-11-20T21:07:49.917Z,1.61
2018-11-20T21:10:39.463Z,1.53
2018-11-20T21:13:48.359Z,1.71
2018-11-20T21:22:26.257Z,1.61
2018-11-20T21:31:36.917Z,1.52
2018-11-20T21:34:45.774Z,1.61
2018-11-20T21:37:55.018Z,1.77
2018-11-20T21:41:18.303Z,1.71
2018-11-20T21:44:27.151Z,1.62
2018-11-20T21:47:17.575Z,1.62
2018-11-20T21:50:27.980Z,1.71
2018-11-20T21:53:36.786Z,1.66
2018-11-20T21:56:26.244Z,1.53
2018-11-20T21:59:42.112Z,1.50
2018-11-20T22:02:51.864Z,1.52
2018-11-20T22:08:43.613Z,1.76
2018-11-20T22:11:52.516Z,1.56
2018-11-20T22:17:46.415Z,1.66
2018-11-20T22:20:55.300Z,1.55
2018-11-20T22:24:04.184Z,1.67
2018-11-20T22:27:13.063Z,1.57
2018-11-20T22:33:04.411Z,1.55
2018-11-20T22:36:13.224Z,1.64
2018-11-20T22:39:02.501Z,1.57
2018-11-20T22:42:08.898Z,1.54
2018-11-20T22:48:20.704Z,1.60
2018-11-20T22:51:29.590Z,1.54
2018-11-20T22:54:38.615Z,1.66
2018-11-20T22:57:47.501Z,1.52
2018-11-20T23:00:56.352Z,1.54
2018-11-20T23:04:05.191Z,1.54
2018-11-20T23:07:14.041Z,1.67
2018-11-20T23:10:04.285Z,1.63
2018-11-20T23:12:55.127Z,1.63
2018-11-20T23:15:45.350Z,1.60
2018-11-20T23:18:35.608Z,1.65
2018-11-20T23:21:25.840Z,1.65
2018-11-20T23:27:00.491Z,1.60
2018-11-20T23:35:45.789Z,1.83
2018-11-20T23:38:16.347Z,1.72
2018-11-20T23:40:46.904Z,1.62
2018-11-20T23:43:17.487Z,1.65
2018-11-20T23:45:48.071Z,1.62
2018-11-20T23:48:18.619Z,1.58
2018-11-20T23:53:45.279Z,1.67
2018-11-20T23:56:35.979Z,1.65
2018-11-20T23:59:27.270Z,1.98
